Time;durP1;ratioP1;P1;durP2;ratioP2;P2;SDS_P1;SDS_P2;PMS_P1;PMS_P2;Temp;Humidity;BMP_temperature;BMP_pressure;BME280_temperature;BME280_humidity;BME280_pressure;Samples;Min_cycle;Max_cycle;Signal;HPM_P1;HPM_P2
2021/11/28 00:01:53;;;;;;;76.97;49.90;;;6.90;99.90;;;;;;5102490;28;20408;-68
2021/11/28 00:04:20;;;;;;;72.70;49.55;;;6.90;99.90;;;;;;5106735;28;20458;-68
2021/11/28 00:12:11;;;;;;;74.68;51.17;;;7.00;99.90;;;;;;5104086;28;20412;-68
2021/11/28 00:14:39;;;;;;;75.72;52.60;;;7.00;99.90;;;;;;5103129;28;20546;-68
2021/11/28 00:17:05;;;;;;;80.57;53.95;;;7.00;99.90;;;;;;5103332;28;20453;-68
2021/11/28 00:19:31;;;;;;;76.10;51.90;;;7.00;99.90;;;;;;5105727;28;20439;-70
2021/11/28 00:21:56;;;;;;;79.17;55.53;;;7.00;99.90;;;;;;5100906;28;20507;-69
2021/11/28 00:24:22;;;;;;;79.53;53.55;;;7.00;99.90;;;;;;5099667;28;20404;-69
2021/11/28 00:26:49;;;;;;;77.97;54.13;;;7.00;99.90;;;;;;5083134;28;20420;-69
2021/11/28 00:29:15;;;;;;;89.60;56.72;;;7.00;99.90;;;;;;5105923;28;21015;-68
2021/11/28 00:31:40;;;;;;;80.30;55.70;;;7.00;99.90;;;;;;5084893;28;20435;-68
2021/11/28 00:34:06;;;;;;;78.23;54.53;;;7.00;99.90;;;;;;5089426;28;20409;-69
2021/11/28 00:36:33;;;;;;;79.63;54.38;;;7.00;99.90;;;;;;5082657;28;20427;-68
2021/11/28 00:38:58;;;;;;;79.00;54.75;;;7.00;99.90;;;;;;5105849;28;20415;-67
2021/11/28 00:41:24;;;;;;;72.82;49.97;;;7.00;99.90;;;;;;5085775;28;20404;-69
2021/11/28 00:43:50;;;;;;;72.83;50.50;;;7.00;99.90;;;;;;5100695;28;21285;-69
2021/11/28 00:46:16;;;;;;;74.82;52.00;;;7.10;99.90;;;;;;5075773;28;20922;-68
2021/11/28 00:48:43;;;;;;;78.30;52.57;;;7.10;99.90;;;;;;5086947;28;20969;-68
2021/11/28 00:53:44;;;;;;;79.97;52.63;;;7.10;99.90;;;;;;5103960;28;20407;-68
2021/11/28 00:56:10;;;;;;;75.15;51.72;;;7.10;99.90;;;;;;5101090;28;20425;-69
2021/11/28 00:58:35;;;;;;;85.57;51.83;;;7.00;99.90;;;;;;5100711;28;20412;-69
2021/11/28 01:01:01;;;;;;;77.03;50.70;;;7.10;99.90;;;;;;5084226;28;20426;-69
2021/11/28 01:03:27;;;;;;;76.90;50.67;;;7.00;99.90;;;;;;5085914;28;20404;-68
2021/11/28 01:05:54;;;;;;;81.75;51.60;;;7.00;99.90;;;;;;5086612;28;20460;-68
2021/11/28 01:08:20;;;;;;;87.13;52.45;;;6.90;99.90;;;;;;5085637;28;20405;-67
2021/11/28 01:10:47;;;;;;;82.60;51.17;;;6.90;99.90;;;;;;5103530;28;20458;-68
2021/11/28 01:13:17;;;;;;;85.70;51.20;;;6.90;99.90;;;;;;5103302;28;20804;-68
2021/11/28 01:15:42;;;;;;;84.32;52.10;;;6.80;99.90;;;;;;5099591;28;20424;-68
2021/11/28 01:18:08;;;;;;;83.03;49.90;;;6.80;99.90;;;;;;5084415;28;20493;-67
2021/11/28 01:20:34;;;;;;;83.75;50.90;;;6.80;99.90;;;;;;5085670;28;20420;-66
2021/11/28 01:23:00;;;;;;;85.15;50.45;;;6.80;99.90;;;;;;5082299;28;20484;-69
2021/11/28 01:25:26;;;;;;;79.10;48.20;;;6.80;99.90;;;;;;5104751;28;20381;-68
2021/11/28 01:27:52;;;;;;;78.70;47.92;;;6.80;99.90;;;;;;5102085;28;20487;-69
2021/11/28 01:30:18;;;;;;;80.27;48.83;;;6.80;99.90;;;;;;5079043;28;20403;-68
2021/11/28 01:32:45;;;;;;;88.20;49.42;;;6.90;99.90;;;;;;5103334;28;20408;-69
2021/11/28 01:35:13;;;;;;;81.47;48.92;;;6.80;99.90;;;;;;5098557;28;20490;-69
2021/11/28 01:37:39;;;;;;;79.55;48.53;;;6.90;99.90;;;;;;5067928;28;20419;-69
2021/11/28 01:40:08;;;;;;;80.80;47.53;;;6.90;99.90;;;;;;5085996;28;20451;-69
2021/11/28 01:42:50;;;;;;;86.65;48.85;;;6.90;99.90;;;;;;5085283;28;20404;-70
2021/11/28 01:45:23;;;;;;;72.63;45.78;;;6.80;99.90;;;;;;5103862;28;20509;-70
2021/11/28 01:47:49;;;;;;;82.70;48.20;;;6.90;99.90;;;;;;5085683;28;20407;-69
2021/11/28 01:50:21;;;;;;;83.15;47.13;;;6.80;99.90;;;;;;5086443;28;20452;-68
2021/11/28 01:52:48;;;;;;;77.47;46.30;;;6.80;99.90;;;;;;5085255;28;20483;-69
2021/11/28 01:55:20;;;;;;;76.45;45.47;;;6.90;99.90;;;;;;5086366;28;20487;-69
2021/11/28 01:57:46;;;;;;;75.78;44.70;;;6.90;99.90;;;;;;5070905;28;20461;-69
2021/11/28 02:00:17;;;;;;;76.45;46.03;;;6.90;99.90;;;;;;5066499;28;20414;-69
2021/11/28 02:02:46;;;;;;;74.28;44.45;;;6.90;99.90;;;;;;5099106;28;20962;-69
2021/11/28 02:05:17;;;;;;;67.85;43.08;;;7.00;99.90;;;;;;5085901;28;20403;-70
2021/11/28 02:07:43;;;;;;;62.97;40.40;;;7.00;99.90;;;;;;5082668;28;20579;-69
2021/11/28 02:10:10;;;;;;;62.53;40.35;;;7.00;99.90;;;;;;5069923;28;20983;-69
2021/11/28 02:12:36;;;;;;;61.22;39.47;;;7.00;99.90;;;;;;5080730;28;20434;-69
2021/11/28 02:15:03;;;;;;;59.10;38.47;;;7.00;99.90;;;;;;5086292;28;20408;-70
2021/11/28 02:17:29;;;;;;;56.78;38.47;;;7.00;99.90;;;;;;5085490;28;20412;-69
2021/11/28 02:19:55;;;;;;;60.72;39.10;;;7.00;99.90;;;;;;5103124;28;20477;-69
2021/11/28 02:22:22;;;;;;;55.30;38.70;;;7.00;99.90;;;;;;5077744;28;20455;-69
2021/11/28 02:24:48;;;;;;;57.45;37.95;;;7.00;99.90;;;;;;5068488;28;20400;-69
2021/11/28 02:27:14;;;;;;;57.42;37.70;;;7.00;99.90;;;;;;5101249;28;20417;-70
2021/11/28 02:29:42;;;;;;;59.22;38.30;;;7.00;99.90;;;;;;5085060;28;20409;-69
2021/11/28 02:32:09;;;;;;;58.80;38.08;;;6.90;99.90;;;;;;5083069;28;20408;-70
2021/11/28 02:34:36;;;;;;;63.33;38.78;;;6.90;99.90;;;;;;5065240;28;20408;-69
2021/11/28 02:37:03;;;;;;;64.60;39.28;;;6.80;99.90;;;;;;5083671;28;20473;-69
2021/11/28 02:39:33;;;;;;;62.42;38.20;;;6.80;99.90;;;;;;5086007;28;20422;-69
2021/11/28 02:41:59;;;;;;;71.90;40.20;;;6.70;99.90;;;;;;5101747;28;20412;-68
2021/11/28 02:44:29;;;;;;;63.13;38.10;;;6.70;99.90;;;;;;5085029;28;20416;-68
2021/11/28 02:46:55;;;;;;;67.18;38.88;;;6.60;99.90;;;;;;5084684;28;20407;-68
2021/11/28 02:49:21;;;;;;;69.40;39.53;;;6.60;99.90;;;;;;5095480;28;20392;-69
2021/11/28 02:51:47;;;;;;;69.63;39.60;;;6.50;99.90;;;;;;5070064;28;20396;-69
2021/11/28 02:54:14;;;;;;;69.75;38.22;;;6.50;99.90;;;;;;5086256;28;20447;-68
2021/11/28 02:56:45;;;;;;;73.38;39.65;;;6.40;99.90;;;;;;5100881;28;20409;-68
2021/11/28 02:59:11;;;;;;;74.47;39.67;;;6.40;99.90;;;;;;5085543;28;20584;-69
2021/11/28 03:01:38;;;;;;;70.38;39.25;;;6.40;99.90;;;;;;5067473;28;20973;-69
2021/11/28 03:04:22;;;;;;;71.90;38.72;;;6.30;99.90;;;;;;5072239;28;20392;-68
2021/11/28 03:06:48;;;;;;;79.32;40.08;;;6.30;99.90;;;;;;5088964;28;20395;-67
2021/11/28 03:09:14;;;;;;;74.17;39.33;;;6.30;99.90;;;;;;5088319;28;20412;-68
2021/11/28 03:11:39;;;;;;;77.10;39.63;;;6.30;99.90;;;;;;5068546;28;20474;-68
2021/11/28 03:14:05;;;;;;;72.07;39.00;;;6.20;99.90;;;;;;5107138;28;20416;-68
2021/11/28 03:16:31;;;;;;;83.00;40.80;;;6.20;99.90;;;;;;5086281;28;20408;-69
2021/11/28 03:18:57;;;;;;;87.43;40.40;;;6.20;99.90;;;;;;5084112;28;20493;-68
2021/11/28 03:21:29;;;;;;;71.60;32.78;;;6.20;99.90;;;;;;5085624;28;20211;-69
2021/11/28 03:23:57;;;;;;;67.05;29.50;;;5.80;99.90;;;;;;5108245;28;20284;-69
2021/11/28 03:26:27;;;;;;;58.75;29.05;;;5.50;99.90;;;;;;5087969;28;20181;-68
2021/11/28 03:28:56;;;;;;;88.65;38.63;;;5.30;99.90;;;;;;5086709;28;20428;-69
2021/11/28 03:31:45;;;;;;;95.57;41.13;;;5.40;99.90;;;;;;5087016;28;20430;-68
2021/11/28 03:34:44;;;;;;;84.15;40.20;;;5.60;99.90;;;;;;5060112;28;20468;-69
2021/11/28 03:37:23;;;;;;;92.93;41.75;;;5.70;99.90;;;;;;5087682;28;20773;-68
2021/11/28 03:39:49;;;;;;;101.53;41.22;;;5.80;99.90;;;;;;5081756;28;20459;-69
2021/11/28 03:42:19;;;;;;;96.10;42.58;;;5.80;99.90;;;;;;5086821;28;20532;-69
2021/11/28 03:44:49;;;;;;;89.20;40.85;;;5.80;99.90;;;;;;5085292;28;20421;-69
2021/11/28 03:47:17;;;;;;;98.80;42.15;;;5.80;99.90;;;;;;5070662;28;20410;-69
2021/11/28 03:49:47;;;;;;;100.32;42.45;;;5.80;99.90;;;;;;5100815;28;20412;-69
2021/11/28 03:52:14;;;;;;;97.15;41.58;;;5.80;99.90;;;;;;5087216;28;20419;-68
2021/11/28 03:54:40;;;;;;;94.32;41.80;;;5.80;99.90;;;;;;5088192;28;20885;-68
2021/11/28 03:57:08;;;;;;;93.22;41.17;;;5.80;99.90;;;;;;5085819;28;20408;-68
2021/11/28 03:59:34;;;;;;;94.00;41.70;;;5.80;99.90;;;;;;5088582;28;20915;-69
2021/11/28 04:01:59;;;;;;;93.95;40.78;;;5.80;99.90;;;;;;5087168;28;20419;-69
2021/11/28 04:04:25;;;;;;;93.00;41.30;;;5.80;99.90;;;;;;5086119;28;20458;-68
2021/11/28 04:07:14;;;;;;;100.55;41.67;;;5.70;99.90;;;;;;5099450;28;21370;-69
2021/11/28 04:09:41;;;;;;;98.43;43.23;;;5.70;99.90;;;;;;5087827;28;20863;-67
2021/11/28 04:12:09;;;;;;;124.13;55.92;;;5.70;99.90;;;;;;5087383;28;20400;-68
2021/11/28 04:14:37;;;;;;;99.15;45.58;;;5.70;99.90;;;;;;5103752;27;20398;-69
2021/11/28 04:17:03;;;;;;;106.13;42.53;;;5.70;99.90;;;;;;5097659;28;20412;-69
2021/11/28 04:19:33;;;;;;;105.07;42.35;;;5.70;99.90;;;;;;5088379;28;20526;-69
2021/11/28 04:21:58;;;;;;;97.05;41.70;;;5.60;99.90;;;;;;5079636;28;21281;-69
2021/11/28 04:24:26;;;;;;;91.10;41.15;;;5.60;99.90;;;;;;5077547;28;20400;-68
2021/11/28 04:26:53;;;;;;;92.45;39.45;;;5.60;99.90;;;;;;5084092;28;20971;-68
2021/11/28 04:29:19;;;;;;;92.73;40.67;;;5.60;99.90;;;;;;5103841;28;20463;-69
2021/11/28 04:31:48;;;;;;;98.13;41.53;;;5.60;99.90;;;;;;5102665;28;20990;-69
2021/11/28 04:34:14;;;;;;;94.18;40.38;;;5.60;99.90;;;;;;5083060;28;20856;-68
2021/11/28 04:36:41;;;;;;;94.22;41.15;;;5.60;99.90;;;;;;5084140;28;20416;-68
2021/11/28 04:39:08;;;;;;;99.57;42.47;;;5.60;99.90;;;;;;5087450;28;20408;-68
2021/11/28 04:41:34;;;;;;;100.18;41.40;;;5.50;99.90;;;;;;5085859;28;20447;-69
2021/11/28 04:44:01;;;;;;;98.70;41.23;;;5.60;99.90;;;;;;5086679;28;20918;-67
2021/11/28 04:46:27;;;;;;;112.22;42.47;;;5.60;99.90;;;;;;5085601;28;20400;-67
2021/11/28 04:48:53;;;;;;;108.45;42.80;;;5.50;99.90;;;;;;5087272;28;20493;-67
2021/11/28 04:51:24;;;;;;;102.57;41.13;;;5.50;99.90;;;;;;5084407;28;21144;-68
2021/11/28 04:53:50;;;;;;;102.38;41.22;;;5.50;99.90;;;;;;5083698;28;20423;-68
2021/11/28 04:56:16;;;;;;;92.47;40.23;;;5.60;99.90;;;;;;5086636;28;20408;-68
2021/11/28 04:58:42;;;;;;;100.78;40.80;;;5.60;99.90;;;;;;5102626;28;20410;-68
2021/11/28 05:01:08;;;;;;;88.85;38.88;;;5.60;99.90;;;;;;5070329;28;20399;-67
2021/11/28 05:03:34;;;;;;;104.28;40.10;;;5.60;99.90;;;;;;5081202;28;20461;-67
2021/11/28 05:06:20;;;;;;;91.73;39.23;;;5.50;99.90;;;;;;5036034;28;20413;-67
2021/11/28 05:09:09;;;;;;;97.07;40.03;;;5.50;99.90;;;;;;5091683;28;20508;-68
2021/11/28 05:11:36;;;;;;;95.28;40.08;;;5.50;99.90;;;;;;5085702;28;21588;-68
2021/11/28 05:14:02;;;;;;;88.57;39.20;;;5.50;99.90;;;;;;5086358;28;20427;-69
2021/11/28 05:16:28;;;;;;;89.82;39.40;;;5.50;99.90;;;;;;5086002;28;20475;-68
2021/11/28 05:18:53;;;;;;;100.75;39.88;;;5.50;99.90;;;;;;5104893;28;21247;-70
2021/11/28 05:21:33;;;;;;;90.82;38.72;;;5.50;99.90;;;;;;5082205;28;20917;-68
2021/11/28 05:23:59;;;;;;;99.38;38.22;;;5.50;99.90;;;;;;5086564;28;20545;-68
2021/11/28 05:26:26;;;;;;;99.15;39.38;;;5.40;99.90;;;;;;5077935;28;20396;-67
2021/11/28 05:28:52;;;;;;;91.37;39.03;;;5.40;99.90;;;;;;5068200;28;20760;-68
2021/11/28 05:31:18;;;;;;;100.05;39.75;;;5.40;99.90;;;;;;5075369;28;20409;-69
2021/11/28 05:34:22;;;;;;;86.55;37.75;;;5.40;99.90;;;;;;5039824;28;20917;-68
2021/11/28 05:37:07;;;;;;;89.03;38.55;;;5.40;99.90;;;;;;5028819;28;20435;-70
2021/11/28 05:39:38;;;;;;;89.95;39.05;;;5.30;99.90;;;;;;5059862;28;20470;-69
2021/11/28 05:42:04;;;;;;;101.38;40.25;;;5.30;99.90;;;;;;5084182;28;20896;-68
2021/11/28 05:44:30;;;;;;;109.13;40.40;;;5.40;99.90;;;;;;5068545;28;20437;-69
2021/11/28 05:47:14;;;;;;;91.80;39.38;;;5.40;99.90;;;;;;5101360;28;20417;-69
2021/11/28 05:49:58;;;;;;;95.03;39.10;;;5.40;99.90;;;;;;5090552;28;20800;-68
2021/11/28 05:52:34;;;;;;;88.43;37.17;;;5.40;99.90;;;;;;5084690;28;20412;-67
2021/11/28 05:55:02;;;;;;;101.65;39.65;;;5.40;99.90;;;;;;5068923;28;20401;-67
2021/11/28 05:57:28;;;;;;;102.15;38.90;;;5.40;99.90;;;;;;5101770;28;20498;-67
2021/11/28 05:59:55;;;;;;;101.13;39.25;;;5.40;99.90;;;;;;5086099;28;20404;-69
2021/11/28 06:02:20;;;;;;;87.10;37.03;;;5.40;99.90;;;;;;5078428;28;20410;-68
2021/11/28 06:04:57;;;;;;;99.05;39.95;;;5.40;99.90;;;;;;5085531;28;20447;-68
2021/11/28 06:07:49;;;;;;;91.57;38.65;;;5.40;99.90;;;;;;5094919;28;20459;-68
2021/11/28 06:10:14;;;;;;;90.22;38.17;;;5.40;99.90;;;;;;5102534;28;21865;-69
2021/11/28 06:12:40;;;;;;;86.60;36.70;;;5.40;99.90;;;;;;5084438;28;20966;-68
2021/11/28 06:15:07;;;;;;;84.40;35.47;;;5.50;99.90;;;;;;5100980;28;20420;-68
2021/11/28 06:17:56;;;;;;;79.10;33.70;;;5.50;99.90;;;;;;5080805;28;20426;-68
2021/11/28 06:20:40;;;;;;;74.53;32.88;;;5.50;99.90;;;;;;5103866;28;20415;-66
2021/11/28 06:23:12;;;;;;;81.10;34.07;;;5.60;99.90;;;;;;5085032;28;20441;-68
2021/11/28 06:25:38;;;;;;;76.25;33.28;;;5.60;99.90;;;;;;5079536;28;20413;-67
2021/11/28 06:28:05;;;;;;;67.90;31.80;;;5.60;99.90;;;;;;5081690;28;20457;-69
2021/11/28 06:30:31;;;;;;;66.10;31.30;;;5.70;99.90;;;;;;5083590;28;20409;-68
2021/11/28 06:33:15;;;;;;;66.47;30.27;;;5.70;99.90;;;;;;5101958;28;20423;-67
2021/11/28 06:35:59;;;;;;;59.63;27.73;;;5.80;99.90;;;;;;5100863;28;20504;-68
2021/11/28 06:38:44;;;;;;;58.67;27.53;;;5.80;99.90;;;;;;5105173;28;20407;-67
2021/11/28 06:41:28;;;;;;;52.55;25.85;;;5.90;99.90;;;;;;5099988;28;20472;-68
2021/11/28 06:43:55;;;;;;;54.10;26.17;;;5.90;99.90;;;;;;5106169;28;20407;-68
2021/11/28 06:46:20;;;;;;;52.38;26.38;;;6.00;99.90;;;;;;5106333;28;20408;-66
2021/11/28 06:48:46;;;;;;;49.97;26.60;;;6.00;99.90;;;;;;5089245;28;20931;-66
2021/11/28 06:51:30;;;;;;;51.55;25.67;;;6.10;99.90;;;;;;5101409;28;21217;-66
2021/11/28 06:53:59;;;;;;;47.90;25.25;;;6.10;99.90;;;;;;5105569;28;20416;-66
2021/11/28 06:56:34;;;;;;;50.58;24.63;;;6.10;99.90;;;;;;5104619;28;20425;-67
2021/11/28 06:59:04;;;;;;;40.20;22.43;;;6.00;99.90;;;;;;5085666;28;20400;-68
2021/11/28 07:01:32;;;;;;;35.92;18.20;;;6.10;99.90;;;;;;5084040;28;20559;-67
2021/11/28 07:04:16;;;;;;;31.65;16.60;;;6.10;99.90;;;;;;5102228;28;20437;-68
2021/11/28 07:07:00;;;;;;;30.65;16.55;;;6.10;99.90;;;;;;5103792;28;20469;-67
2021/11/28 07:09:27;;;;;;;27.00;14.95;;;6.20;99.90;;;;;;5088594;28;20828;-68
2021/11/28 07:11:55;;;;;;;27.55;14.88;;;6.20;99.90;;;;;;5086172;28;20524;-68
2021/11/28 07:14:22;;;;;;;24.45;13.40;;;6.30;99.90;;;;;;5088502;28;20495;-67
2021/11/28 07:16:47;;;;;;;21.65;12.30;;;6.30;99.90;;;;;;5104127;28;20515;-68
2021/11/28 07:19:13;;;;;;;24.03;10.87;;;6.30;99.90;;;;;;5088331;28;20419;-67
2021/11/28 07:21:57;;;;;;;19.98;8.00;;;6.30;99.90;;;;;;5101823;28;20938;-67
2021/11/28 07:24:23;;;;;;;14.25;7.07;;;6.40;99.90;;;;;;5088079;28;20416;-68
2021/11/28 07:26:49;;;;;;;16.42;7.15;;;6.40;99.90;;;;;;5071125;28;20562;-68
2021/11/28 07:29:15;;;;;;;16.63;6.60;;;6.40;99.90;;;;;;5088332;28;21000;-68
2021/11/28 07:31:41;;;;;;;16.13;5.82;;;6.40;99.90;;;;;;5084611;28;20534;-67
2021/11/28 07:34:07;;;;;;;17.97;4.87;;;6.40;99.90;;;;;;5103173;28;20507;-67
2021/11/28 07:36:51;;;;;;;7.82;4.35;;;6.40;99.90;;;;;;5103663;28;20785;-67
2021/11/28 07:39:18;;;;;;;8.88;3.58;;;6.40;99.90;;;;;;5087700;28;20419;-68
2021/11/28 07:41:44;;;;;;;10.07;3.53;;;6.40;99.90;;;;;;5086318;28;20876;-68
2021/11/28 07:44:29;;;;;;;5.30;2.92;;;6.40;99.90;;;;;;5105361;28;20434;-67
2021/11/28 07:47:15;;;;;;;5.63;2.50;;;6.40;99.90;;;;;;5052603;28;20396;-68
2021/11/28 07:49:53;;;;;;;5.88;2.20;;;6.40;99.90;;;;;;5072248;28;20416;-67
2021/11/28 07:52:23;;;;;;;9.73;3.67;;;6.50;99.90;;;;;;5087205;28;20904;-67
2021/11/28 07:54:48;;;;;;;7.20;3.47;;;6.40;99.90;;;;;;5101876;28;20463;-68
2021/11/28 07:57:32;;;;;;;6.50;2.90;;;6.50;99.90;;;;;;5097760;28;20412;-68
2021/11/28 08:00:30;;;;;;;8.02;3.80;;;6.50;99.90;;;;;;5091119;28;20392;-67
2021/11/28 08:02:56;;;;;;;10.95;4.00;;;6.50;99.90;;;;;;5079299;28;20416;-67
2021/11/28 08:05:40;;;;;;;7.20;3.40;;;6.50;99.90;;;;;;5102484;28;20419;-68
2021/11/28 08:08:21;;;;;;;3.03;2.00;;;6.60;99.90;;;;;;5095914;28;20472;-67
2021/11/28 08:11:10;;;;;;;4.75;2.40;;;6.60;99.90;;;;;;5077704;28;20587;-68
2021/11/28 08:13:35;;;;;;;9.37;2.37;;;6.60;99.90;;;;;;5102583;28;20975;-67
2021/11/28 08:16:02;;;;;;;4.57;1.80;;;6.60;99.90;;;;;;5102980;28;20432;-67
2021/11/28 08:18:27;;;;;;;3.55;1.80;;;6.50;99.90;;;;;;5082989;28;20459;-67
2021/11/28 08:20:53;;;;;;;2.80;1.70;;;6.50;99.90;;;;;;5077927;28;20436;-68
2021/11/28 08:23:20;;;;;;;3.92;1.90;;;6.60;99.90;;;;;;5086133;28;20537;-68
2021/11/28 08:25:45;;;;;;;8.70;2.00;;;6.60;99.90;;;;;;5104095;28;20435;-68
2021/11/28 08:28:11;;;;;;;4.43;1.83;;;6.60;99.90;;;;;;5100516;28;20914;-68
2021/11/28 08:30:38;;;;;;;3.45;1.10;;;6.60;99.90;;;;;;5102943;28;20421;-68
2021/11/28 08:33:22;;;;;;;2.33;0.90;;;6.60;99.90;;;;;;5102510;28;20999;-68
2021/11/28 08:36:08;;;;;;;2.05;0.70;;;6.50;99.90;;;;;;5105465;28;20415;-69
2021/11/28 08:38:33;;;;;;;4.28;0.95;;;6.40;99.90;;;;;;5102388;28;20412;-67
2021/11/28 08:40:59;;;;;;;2.10;0.80;;;6.40;99.90;;;;;;5101692;28;20410;-67
2021/11/28 08:43:25;;;;;;;3.65;0.80;;;6.40;99.90;;;;;;5103467;28;20454;-67
2021/11/28 08:45:51;;;;;;;4.22;1.17;;;6.40;99.90;;;;;;5098117;28;20419;-67
2021/11/28 08:48:17;;;;;;;3.30;0.90;;;6.40;99.90;;;;;;5093353;28;20408;-68
2021/11/28 08:50:44;;;;;;;5.00;1.83;;;6.30;99.90;;;;;;5102914;28;20408;-67
2021/11/28 08:53:10;;;;;;;7.67;2.77;;;6.30;99.90;;;;;;5103815;28;20424;-67
2021/11/28 08:55:37;;;;;;;2.45;1.00;;;6.30;99.90;;;;;;5103401;28;20423;-69
2021/11/28 08:58:04;;;;;;;2.20;0.65;;;6.30;99.90;;;;;;5102379;28;20412;-67
2021/11/28 09:00:30;;;;;;;2.53;0.93;;;6.30;99.90;;;;;;5100530;28;20498;-67
2021/11/28 09:02:56;;;;;;;3.28;0.80;;;6.20;99.90;;;;;;5100188;28;20427;-67
2021/11/28 09:05:24;;;;;;;2.47;1.10;;;6.20;99.90;;;;;;5103054;28;20765;-69
2021/11/28 09:07:50;;;;;;;4.03;1.80;;;6.20;99.90;;;;;;5083088;28;20412;-67
2021/11/28 09:10:17;;;;;;;5.93;2.03;;;6.20;99.90;;;;;;5101309;28;20434;-69
2021/11/28 09:12:44;;;;;;;7.93;2.15;;;6.20;99.90;;;;;;5093675;28;20498;-69
2021/11/28 09:15:11;;;;;;;4.60;1.50;;;6.20;99.90;;;;;;5102732;28;20429;-70
2021/11/28 09:17:41;;;;;;;2.13;0.90;;;6.20;99.90;;;;;;5100343;28;20771;-69
2021/11/28 09:20:09;;;;;;;3.80;0.90;;;6.20;99.90;;;;;;5096487;28;20411;-68
2021/11/28 09:25:13;;;;;;;3.42;1.35;;;6.20;99.90;;;;;;5103019;28;20405;-68
2021/11/28 09:27:45;;;;;;;5.22;2.10;;;6.20;99.90;;;;;;5101923;28;20414;-68
2021/11/28 09:30:12;;;;;;;2.10;0.80;;;6.30;99.90;;;;;;5104446;28;21043;-69
2021/11/28 09:32:38;;;;;;;2.40;0.70;;;6.30;99.90;;;;;;5068683;28;20521;-68
2021/11/28 09:35:04;;;;;;;1.88;0.68;;;6.20;99.90;;;;;;5105067;28;22043;-68
2021/11/28 09:37:31;;;;;;;1.73;0.80;;;6.20;99.90;;;;;;5102254;28;20400;-68
2021/11/28 09:39:57;;;;;;;2.10;0.70;;;6.20;99.90;;;;;;5100320;28;20490;-70
2021/11/28 09:42:31;;;;;;;3.78;0.70;;;6.20;99.90;;;;;;5100903;28;20553;-69
2021/11/28 09:44:59;;;;;;;2.72;0.70;;;6.10;99.90;;;;;;5096369;28;20419;-70
2021/11/28 09:47:26;;;;;;;2.95;1.00;;;6.10;99.90;;;;;;5098142;28;20407;-70
2021/11/28 09:49:56;;;;;;;1.60;0.90;;;6.20;99.90;;;;;;5103937;28;20764;-70
2021/11/28 09:52:24;;;;;;;3.40;0.98;;;6.20;99.90;;;;;;5102941;28;20423;-69
2021/11/28 09:54:55;;;;;;;3.40;1.00;;;6.20;99.90;;;;;;5102938;28;20407;-69
2021/11/28 09:57:22;;;;;;;2.58;0.80;;;6.30;99.90;;;;;;5101835;28;20469;-68
2021/11/28 09:59:51;;;;;;;3.58;1.02;;;6.30;99.90;;;;;;5091668;28;20436;-69
2021/11/28 10:02:21;;;;;;;2.60;1.40;;;6.40;99.90;;;;;;5101851;28;20949;-69
2021/11/28 10:04:47;;;;;;;2.35;1.20;;;6.40;99.90;;;;;;5103629;28;20408;-69
2021/11/28 10:07:13;;;;;;;2.87;1.00;;;6.40;99.90;;;;;;5100204;28;20434;-69
2021/11/28 10:09:39;;;;;;;3.43;1.03;;;6.50;99.90;;;;;;5100688;28;20802;-69
2021/11/28 10:12:15;;;;;;;2.60;1.20;;;6.50;99.90;;;;;;5099295;28;20412;-69
2021/11/28 10:14:42;;;;;;;3.60;1.33;;;6.60;99.90;;;;;;5100229;28;20458;-68
2021/11/28 10:17:09;;;;;;;3.55;1.30;;;6.60;99.90;;;;;;5103702;28;20435;-69
2021/11/28 10:19:36;;;;;;;4.32;1.30;;;6.70;99.90;;;;;;5104277;28;20507;-69
2021/11/28 10:22:03;;;;;;;4.03;1.60;;;6.80;99.90;;;;;;5103616;28;20419;-69
2021/11/28 10:24:29;;;;;;;1.83;1.30;;;6.80;99.90;;;;;;5102726;28;20303;-69
2021/11/28 10:27:04;;;;;;;3.17;1.20;;;6.50;99.90;;;;;;5107847;28;20184;-68
2021/11/28 10:29:36;;;;;;;1.30;0.80;;;6.20;99.90;;;;;;5106679;28;20189;-70
2021/11/28 10:32:05;;;;;;;1.70;1.00;;;6.10;99.90;;;;;;5107396;28;20185;-70
2021/11/28 10:34:43;;;;;;;4.15;1.38;;;5.90;99.90;;;;;;5106524;28;20181;-70
2021/11/28 10:37:29;;;;;;;4.43;1.40;;;5.90;99.90;;;;;;5097607;28;20185;-71
2021/11/28 10:39:59;;;;;;;4.30;1.20;;;5.80;99.90;;;;;;5091545;28;20184;-70
2021/11/28 10:42:29;;;;;;;2.80;1.38;;;5.80;99.90;;;;;;5108223;28;20299;-71
2021/11/28 10:45:04;;;;;;;8.30;3.88;;;5.70;99.90;;;;;;5109553;28;20614;-70
2021/11/28 10:47:42;;;;;;;4.65;1.90;;;5.70;99.90;;;;;;5064828;28;20257;-70
2021/11/28 10:50:12;;;;;;;3.30;1.50;;;5.70;99.90;;;;;;5106772;28;20207;-69
2021/11/28 10:52:38;;;;;;;2.85;1.42;;;5.70;99.90;;;;;;5085701;28;20230;-71
2021/11/28 10:55:12;;;;;;;3.05;1.52;;;5.70;99.90;;;;;;5105593;28;20196;-68
2021/11/28 10:57:38;;;;;;;4.25;2.20;;;5.60;99.90;;;;;;5107025;28;20451;-70
2021/11/28 11:00:06;;;;;;;3.78;1.73;;;6.00;99.90;;;;;;5108721;28;20403;-69
2021/11/28 11:02:34;;;;;;;3.28;1.77;;;6.30;99.90;;;;;;5105733;28;20412;-69
2021/11/28 11:05:02;;;;;;;4.97;1.80;;;6.50;99.90;;;;;;5108656;28;20407;-68
2021/11/28 11:07:41;;;;;;;2.67;1.10;;;6.60;99.90;;;;;;5100948;28;20415;-69
2021/11/28 11:10:16;;;;;;;3.28;1.15;;;6.70;99.90;;;;;;5101825;28;20560;-69
2021/11/28 11:12:45;;;;;;;3.38;0.80;;;6.70;99.90;;;;;;5104139;28;20404;-69
2021/11/28 11:15:15;;;;;;;5.40;0.90;;;6.70;99.90;;;;;;5107653;28;20430;-69
2021/11/28 11:17:58;;;;;;;4.10;1.10;;;6.70;99.90;;;;;;5105806;28;20427;-70
2021/11/28 11:20:27;;;;;;;6.70;1.70;;;6.80;99.90;;;;;;5107534;28;20414;-68
2021/11/28 11:22:54;;;;;;;7.65;2.88;;;6.90;99.90;;;;;;5104795;28;20464;-68
2021/11/28 11:25:21;;;;;;;4.93;1.00;;;7.00;99.90;;;;;;5099044;28;20409;-70
2021/11/28 11:27:49;;;;;;;3.20;0.90;;;7.00;99.90;;;;;;5088022;28;20754;-68
2021/11/28 11:30:18;;;;;;;6.93;1.70;;;7.10;99.90;;;;;;5107636;28;20408;-67
2021/11/28 11:32:46;;;;;;;4.28;1.45;;;7.10;99.90;;;;;;5105877;28;20423;-68
2021/11/28 11:35:23;;;;;;;4.78;1.40;;;7.20;99.90;;;;;;5107959;28;20461;-68
2021/11/28 11:37:50;;;;;;;3.83;1.20;;;7.20;99.90;;;;;;5104525;28;20596;-69
2021/11/28 11:40:19;;;;;;;30.35;19.45;;;7.20;99.90;;;;;;5107795;28;20928;-68
2021/11/28 11:42:47;;;;;;;5.40;2.10;;;7.20;99.90;;;;;;5087228;28;21220;-70
2021/11/28 11:45:18;;;;;;;4.03;1.40;;;7.30;99.90;;;;;;5106417;28;20412;-67
2021/11/28 11:47:44;;;;;;;3.67;1.50;;;7.30;99.90;;;;;;5101291;28;20405;-69
2021/11/28 11:50:13;;;;;;;3.92;1.58;;;7.40;99.90;;;;;;5106595;28;20411;-69
2021/11/28 11:52:39;;;;;;;4.15;1.80;;;7.40;99.90;;;;;;5085077;28;20482;-70
2021/11/28 11:55:17;;;;;;;5.78;1.70;;;7.50;99.90;;;;;;5105483;28;20446;-68
2021/11/28 11:58:08;;;;;;;4.32;1.50;;;7.60;99.90;;;;;;5104272;28;20424;-68
2021/11/28 12:00:38;;;;;;;7.38;1.70;;;7.60;99.90;;;;;;5103291;28;20457;-68
2021/11/28 12:03:21;;;;;;;3.83;1.10;;;7.70;99.90;;;;;;5103771;28;20427;-68
2021/11/28 12:05:57;;;;;;;4.53;1.45;;;7.70;99.90;;;;;;5082812;28;20412;-69
2021/11/28 12:08:28;;;;;;;4.28;1.58;;;7.70;99.90;;;;;;5097966;28;20738;-71
2021/11/28 12:11:11;;;;;;;4.00;1.40;;;7.70;99.90;;;;;;5097556;28;20405;-69
2021/11/28 12:13:40;;;;;;;6.00;1.70;;;7.70;99.90;;;;;;5103191;28;20791;-70
2021/11/28 12:16:06;;;;;;;4.72;1.40;;;7.70;99.90;;;;;;5106978;28;21210;-70
2021/11/28 12:18:34;;;;;;;5.30;1.60;;;7.70;99.90;;;;;;5099939;28;20463;-68
2021/11/28 12:21:14;;;;;;;7.13;1.60;;;7.70;99.90;;;;;;5101172;28;20411;-70
2021/11/28 12:24:05;;;;;;;5.60;1.43;;;7.70;99.90;;;;;;5102981;28;20415;-69
2021/11/28 12:26:31;;;;;;;5.20;1.48;;;7.70;99.90;;;;;;5101879;28;20449;-68
2021/11/28 12:29:15;;;;;;;7.30;1.77;;;7.70;99.90;;;;;;5102537;28;20440;-70
2021/11/28 12:31:50;;;;;;;6.38;2.40;;;7.70;99.90;;;;;;5103710;28;20506;-68
2021/11/28 12:34:22;;;;;;;8.25;1.92;;;7.70;99.90;;;;;;5081988;28;20459;-70
2021/11/28 12:36:56;;;;;;;6.63;1.80;;;7.70;99.90;;;;;;5099234;28;20421;-68
2021/11/28 12:39:23;;;;;;;4.90;1.30;;;7.70;99.90;;;;;;5102310;28;20408;-69
2021/11/28 12:41:51;;;;;;;4.03;1.25;;;7.70;99.90;;;;;;5102534;28;20461;-69
2021/11/28 12:44:25;;;;;;;5.03;1.30;;;7.70;99.90;;;;;;5103976;28;20452;-70
2021/11/28 12:46:55;;;;;;;5.40;1.38;;;7.70;99.90;;;;;;5099774;28;20439;-69
2021/11/28 12:49:32;;;;;;;6.70;1.50;;;7.60;99.90;;;;;;5104312;28;20410;-70
2021/11/28 12:52:24;;;;;;;4.22;1.52;;;7.70;99.90;;;;;;5087198;28;20420;-69
2021/11/28 12:55:06;;;;;;;7.78;1.52;;;7.70;99.90;;;;;;5079756;28;20420;-71
2021/11/28 12:57:56;;;;;;;4.78;1.35;;;7.60;99.90;;;;;;5101843;28;20566;-70
2021/11/28 13:00:26;;;;;;;4.77;1.60;;;7.50;99.90;;;;;;5100578;28;20931;-68
2021/11/28 13:02:59;;;;;;;5.80;1.60;;;7.50;99.90;;;;;;5101657;28;20427;-69
2021/11/28 13:08:14;;;;;;;6.80;1.52;;;7.50;99.90;;;;;;5100662;28;20408;-72
2021/11/28 13:10:50;;;;;;;6.57;1.57;;;7.50;99.90;;;;;;5087618;28;21210;-67
2021/11/28 13:13:17;;;;;;;7.57;1.50;;;7.60;99.90;;;;;;5098156;28;21249;-69
2021/11/28 13:15:48;;;;;;;9.98;2.45;;;7.60;99.90;;;;;;5102647;28;20415;-68